CheckWX is a tool to help pilots better visualize weather data.  It is not intended as a substitute for an official pre-flight weather briefing.

11:07:33 UTC

KSRC METAR
Searcy Municipal Airport
Searcy, Arkansas, USA
Current

12 mins ago

KSRC 241056Z AUTO 00000KT 3SM BR CLR 19/19 A3008 RMK AO2 SLP192 T01940194
Observed
May-24 @ 10:56 UTC
Visibility
3 SM
Flight Rules
MVFR
Conditions
Mist
Cloud Levels
  • Clear skies
Temperature
19°C / 66°F
Dewpoint
19°C / 66°F
Humidity
100%
Altimeter
30.08" Hg
Pressure
1018.62 hPa
Previous

1 hour ago

KSRC 240956Z AUTO 00000KT 7SM CLR 19/19 A3006 RMK AO2 SLP186 T01940194
Observed
May-24 @ 09:56 UTC
Visibility
7 SM
Flight Rules
VFR
Cloud Levels
  • Clear skies
Temperature
19°C / 66°F
Dewpoint
19°C / 66°F
Humidity
100%
Altimeter
30.06" Hg
Pressure
1017.92 hPa
Previous

2 hours ago

KSRC 240856Z AUTO 00000KT 6SM HZ CLR 19/ A3005 RMK AO2 SLP180 T0194 55004
Observed
May-24 @ 08:56 UTC
Visibility
6 SM
Flight Rules
VFR
Conditions
Haze
Cloud Levels
  • Clear skies
Temperature
19°C / 66°F
Altimeter
30.05" Hg
Pressure
1017.62 hPa